KLDM/LDM METAR and TAF weather

Enter ICAO airport designator
Station Type Date Time Source
KLDM METAR 2018/12/10 08:15 UTC NOAA

KLDM 100815Z AUTO 00000KT 7SM OVC020 M04/M05 A3022 RMK AO2 T10371050


Station Type Date Time Source
KLDM Decoded METAR 2018/12/10 08:15 UTC NOAA

Ludington, Mason County Airport, MI, United States (KLDM) 43-58N 86-24W
Dec 10, 2018 - 03:15 AM EST / 2018.12.10 0815 UTC
Wind: Calm:0
Visibility: 7 mile(s):0
Sky conditions: overcast
Temperature: 25.3 F (-3.7 C)
Dew Point: 23.0 F (-5.0 C)
Relative Humidity: 90%
Pressure (altimeter): 30.22 in. Hg (1023 hPa)
ob: KLDM 100815Z AUTO 00000KT 7SM OVC020 M04/M05 A3022 RMK AO2 T10371050
cycle: 8

Station Type Date Time Source
KLDM TAF UTC NOAA

Error!


Example: see airport list